Piedmont Triad International Airport
KGSO : now visible

Airfield :











YOU CAN JOIN US ON...

 
LOGIN :

Register | Disclaimer

   EN    FR    IT 

 









Legend :    VFR   Marginal VFR   IFR   Intensive IFR   Very Intensive IFR
Visi :
Ceiling :
>= 8 km
>= 3000ft
5 to 8 km
1000 to 3000 ft
1500m to 5 km
500 to 1000 ft
800 to 1500m
200 to 500 ft
< 800m
< 200 ft
Symbols :   Thunderstorms  Fog  Heavy snow  Heavy precipitations  Wind > 20 kt






- Airport Elevation : 925 ft
- IATA code : GSO


KGSO - Piedmont Triad International

CURRENT METAR :
  • 281554Z 22008KT 10SM SCT017 BKN070 BKN250 24/21 A3010 RMK AO2 SLP182 T02440206

EXPIRED METARs :
  • 281511Z 23005KT 10SM BKN015 BKN047 BKN075 OVC250 23/20 A3010 RMK AO2 T02330200
  • 281454Z 25007KT 10SM BKN013 BKN042 OVC250 23/20 A3010 RMK AO2 SLP183 T02280200 50004
  • 281424Z 22007KT 10SM BKN011 BKN039 OVC250 22/19 A3011 RMK AO2 T02170194
  • 281354Z 24007KT 10SM BKN009 BKN022 OVC038 21/19 A3011 RMK AO2 SLP188 T02110194
  • 281322Z 25005KT 10SM BKN009 OVC039 21/19 A3010 RMK AO2 T02060189

TAF KGSO
Valid from the 28 at 16:00 until the 29 at 12:00 UTC


281613Z 2816/2912 21007KT P6SM SCT015 BKN045
FM282300 17009KT P6SM VCTS BKN035CB
FM290500 17007KT P6SM BKN015
FM290700 20004KT P6SM OVC007
FM291000 20005KT P6SM OVC003
KZTL FIR / North America



MET'MAP, your aeronautical weather chart ! - Copyright ORBIFLY December 2007 - Disclaimer

ORBIFLY MET'MAP TEAM :

Programming & Development : Alexandra Zaïnal
Concept & original design : Baudouin d'Aumeries
Assistance for programming : Marc-Olivier Méhu
Technical & hardware support : Manuel Goepfert

Contact : metmap@orbifly.com




SOURCES & CREDITS :

   NOAA       Earth
Advisory